KIMT/IMT METAR and TAF weather

Enter ICAO airport designator
Station Type Date Time Source
KIMT METAR 2020/04/05 05:54 UTC NOAA

KIMT 050554Z AUTO 00000KT 10SM CLR M06/M09 A3015 RMK AO2 SLP226 T10561094 10056 21056 400781056 53009


Station Type Date Time Source
KIMT Decoded METAR 2020/04/05 05:54 UTC NOAA

IRON MOUNTAIN FORD AIRPORT, MI, United States (KIMT) 45-49N 88-07W 349M
Apr 05, 2020 - 01:54 AM EDT / 2020.04.05 0554 UTC
Wind: Calm:0
Visibility: 10 mile(s):0
Sky conditions: clear
Temperature: 21.9 F (-5.6 C)
Dew Point: 15.1 F (-9.4 C)
Relative Humidity: 74%
Pressure (altimeter): 30.15 in. Hg (1020 hPa)
Pressure tendency: 0.03 inches (0.9 hPa) higher than three hours ago
ob: KIMT 050554Z AUTO 00000KT 10SM CLR M06/M09 A3015 RMK AO2 SLP226 T10561094 10056 21056 400781056 53009
cycle: 6

Station Type Date Time Source
KIMT TAF UTC NOAA

Error!

Example: see airport list